Time;durP1;ratioP1;P1;durP2;ratioP2;P2;SDS_P1;SDS_P2;PMS_P1;PMS_P2;Temp;Humidity;BMP_temperature;BMP_pressure;BME280_temperature;BME280_humidity;BME280_pressure;Samples;Min_cycle;Max_cycle;Signal;HPM_P1;HPM_P2
2023/05/16 00:00:57;0.00;0.00;0.62;0.00;0.00;0.62;2.63;2.43;;;28.00;21.90;;;;;;2259283;61;20991;-63
2023/05/16 00:03:42;0.00;0.00;0.62;0.00;0.00;0.62;3.03;2.43;;;28.00;21.90;;;;;;2260105;61;20404;-64
2023/05/16 00:06:27;0.00;0.00;0.62;0.00;0.00;0.62;2.50;2.30;;;28.00;21.90;;;;;;2260226;61;20369;-62
2023/05/16 00:09:13;0.00;0.00;0.62;0.00;0.00;0.62;2.80;2.23;;;28.00;22.40;;;;;;2259544;61;20913;-62
2023/05/16 00:11:58;0.00;0.00;0.62;0.00;0.00;0.62;2.33;2.13;;;28.00;21.90;;;;;;2260290;61;20936;-62
2023/05/16 00:14:43;0.00;0.00;0.62;0.00;0.00;0.62;2.30;2.10;;;28.00;21.90;;;;;;2260175;61;20393;-65
2023/05/16 00:17:27;0.00;0.00;0.62;0.00;0.00;0.62;2.27;2.07;;;27.90;21.90;;;;;;2260267;61;20948;-61
2023/05/16 00:20:13;0.00;0.00;0.62;0.00;0.00;0.62;2.57;2.20;;;27.90;21.80;;;;;;2260014;61;20767;-62
2023/05/16 00:22:59;0.00;0.00;0.62;0.00;0.00;0.62;2.30;2.10;;;27.90;21.90;;;;;;2259492;61;20495;-62
2023/05/16 00:25:47;0.00;0.00;0.62;0.00;0.00;0.62;2.80;2.27;;;28.00;21.90;;;;;;2260310;61;20468;-62
2023/05/16 00:28:32;0.00;0.00;0.62;0.00;0.00;0.62;2.23;2.00;;;27.90;21.90;;;;;;2260169;61;20778;-63
2023/05/16 00:31:16;0.00;0.00;0.62;0.00;0.00;0.62;2.70;2.30;;;27.90;21.90;;;;;;2261750;61;20376;-63
2023/05/16 00:34:02;0.00;0.00;0.62;0.00;0.00;0.62;2.70;2.17;;;27.90;21.90;;;;;;2260082;61;20445;-62
2023/05/16 00:36:47;0.00;0.00;0.62;0.00;0.00;0.62;2.17;1.97;;;27.90;21.90;;;;;;2260210;61;20365;-63
2023/05/16 00:39:33;0.00;0.00;0.62;0.00;0.00;0.62;2.23;1.83;;;27.90;21.90;;;;;;2259591;61;20823;-62
2023/05/16 00:42:20;0.00;0.00;0.62;0.00;0.00;0.62;2.60;2.40;;;27.90;21.90;;;;;;2260113;61;20416;-62
2023/05/16 00:45:07;0.00;0.00;0.62;0.00;0.00;0.62;2.40;2.20;;;27.90;21.90;;;;;;2259132;61;20912;-61
2023/05/16 00:47:52;0.00;0.00;0.62;0.00;0.00;0.62;2.20;2.00;;;27.90;21.90;;;;;;2259911;61;20364;-63
2023/05/16 00:50:38;0.00;0.00;0.62;0.00;0.00;0.62;2.30;2.10;;;27.90;21.90;;;;;;2259701;61;20443;-65
2023/05/16 00:53:24;0.00;0.00;0.62;0.00;0.00;0.62;2.47;2.27;;;27.90;21.90;;;;;;2261991;61;20433;-63
2023/05/16 00:56:09;0.00;0.00;0.62;0.00;0.00;0.62;2.77;2.57;;;27.80;21.80;;;;;;2259989;61;20465;-62
2023/05/16 00:58:56;0.00;0.00;0.62;0.00;0.00;0.62;2.63;2.03;;;27.80;21.80;;;;;;2259763;61;20774;-63
2023/05/16 01:01:44;0.00;0.00;0.62;0.00;0.00;0.62;2.10;1.90;;;27.80;21.80;;;;;;2259977;61;20436;-63
2023/05/16 01:04:31;0.00;0.00;0.62;0.00;0.00;0.62;2.03;1.83;;;27.90;22.00;;;;;;2260089;61;20397;-63
2023/05/16 01:07:16;0.00;0.00;0.62;0.00;0.00;0.62;2.47;2.27;;;27.80;21.80;;;;;;2258988;61;20504;-62
2023/05/16 01:10:02;0.00;0.00;0.62;0.00;0.00;0.62;2.27;1.70;;;27.80;21.90;;;;;;2259237;61;20424;-64
2023/05/16 01:13:00;0.00;0.00;0.62;0.00;0.00;0.62;1.93;1.60;;;27.80;21.90;;;;;;2259739;61;20358;-62
2023/05/16 01:15:55;0.00;0.00;0.62;0.00;0.00;0.62;2.53;1.90;;;27.80;21.90;;;;;;2259700;61;20401;-66
2023/05/16 01:18:50;0.00;0.00;0.62;0.00;0.00;0.62;2.00;1.73;;;27.80;21.90;;;;;;2260044;61;20685;-63
2023/05/16 01:21:57;0.00;0.00;0.62;0.00;0.00;0.62;2.13;1.93;;;27.80;21.90;;;;;;2259015;61;20463;-63
2023/05/16 01:24:56;0.00;0.00;0.62;0.00;0.00;0.62;2.40;1.83;;;27.80;21.90;;;;;;2260075;61;20771;-63
2023/05/16 01:27:44;0.00;0.00;0.62;0.00;0.00;0.62;2.73;2.13;;;27.80;21.90;;;;;;2260146;61;20365;-64
2023/05/16 01:30:34;0.00;0.00;0.62;0.00;0.00;0.62;1.90;1.50;;;27.80;21.90;;;;;;2259258;61;20385;-64
2023/05/16 01:33:19;0.00;0.00;0.62;0.00;0.00;0.62;1.80;1.60;;;27.80;21.90;;;;;;2260174;61;20420;-64
2023/05/16 01:36:12;0.00;0.00;0.62;0.00;0.00;0.62;2.50;2.17;;;27.80;21.90;;;;;;2260123;61;20466;-64
2023/05/16 01:39:06;0.00;0.00;0.62;0.00;0.00;0.62;2.27;1.80;;;27.70;21.90;;;;;;2259909;61;20364;-64
2023/05/16 01:42:00;0.00;0.00;0.62;0.00;0.00;0.62;1.70;1.60;;;27.80;22.50;;;;;;2259409;61;20469;-65
2023/05/16 01:44:55;0.00;0.00;0.62;0.00;0.00;0.62;2.27;1.83;;;27.70;21.90;;;;;;2259401;61;20357;-64
2023/05/16 01:47:44;0.00;0.00;0.62;0.00;0.00;0.62;2.60;1.87;;;27.70;21.90;;;;;;2259412;61;20396;-64
2023/05/16 01:50:32;0.00;0.00;0.62;0.00;0.00;0.62;1.87;1.67;;;27.70;21.90;;;;;;2259288;61;20400;-64
2023/05/16 01:53:24;0.00;0.00;0.62;0.00;0.00;0.62;2.10;1.73;;;27.70;21.90;;;;;;2259785;61;20500;-64
2023/05/16 01:56:15;0.00;0.00;0.62;0.00;0.00;0.62;2.33;1.80;;;27.70;21.90;;;;;;2259463;61;20428;-69
2023/05/16 01:59:01;0.00;0.00;0.62;0.00;0.00;0.62;2.40;1.30;;;27.70;21.90;;;;;;2258735;61;20776;-64
2023/05/16 02:01:47;0.00;0.00;0.62;0.00;0.00;0.62;2.10;1.90;;;27.70;21.90;;;;;;2260464;61;20420;-64
2023/05/16 02:04:31;0.00;0.00;0.62;0.00;0.00;0.62;3.53;1.90;;;27.70;21.90;;;;;;2263073;61;20369;-65
2023/05/16 02:07:17;0.00;0.00;0.62;0.00;0.00;0.62;2.10;1.57;;;27.70;21.90;;;;;;2262736;61;20411;-66
2023/05/16 02:10:05;0.00;0.00;0.62;0.00;0.00;0.62;2.30;1.70;;;27.70;21.90;;;;;;2259825;61;20440;-64
2023/05/16 02:12:53;0.00;0.00;0.62;0.00;0.00;0.62;1.70;1.50;;;27.70;21.90;;;;;;2260763;61;20357;-65
2023/05/16 02:15:38;0.00;0.00;0.62;0.00;0.00;0.62;1.77;1.67;;;27.70;21.90;;;;;;2259936;61;20383;-64
2023/05/16 02:18:24;0.00;0.00;0.62;0.00;0.00;0.62;1.80;1.57;;;27.60;21.80;;;;;;2260536;61;20449;-64
2023/05/16 02:21:09;0.00;0.00;0.62;0.00;0.00;0.62;2.70;1.77;;;27.60;21.80;;;;;;2259182;61;20392;-65
2023/05/16 02:23:54;0.00;0.00;0.62;0.00;0.00;0.62;1.63;1.37;;;27.60;21.80;;;;;;2260170;61;20392;-67
2023/05/16 02:26:39;0.00;0.00;0.62;0.00;0.00;0.62;1.70;1.40;;;27.60;21.80;;;;;;2260314;61;20496;-64
2023/05/16 02:29:23;0.00;0.00;0.62;0.00;0.00;0.62;2.50;1.77;;;27.60;21.80;;;;;;2259438;61;20772;-64
2023/05/16 02:32:08;0.00;0.00;0.62;0.00;0.00;0.62;2.27;1.70;;;27.60;21.80;;;;;;2260629;61;20419;-64
2023/05/16 02:34:54;0.00;0.00;0.62;0.00;0.00;0.62;1.93;1.60;;;27.60;21.90;;;;;;2260129;61;20408;-64
2023/05/16 02:37:39;0.00;0.00;0.62;0.00;0.00;0.62;3.00;2.00;;;27.60;21.90;;;;;;2262465;61;20427;-64
2023/05/16 02:40:24;0.00;0.00;0.62;0.00;0.00;0.62;1.97;1.77;;;27.60;21.80;;;;;;2260178;61;20376;-64
2023/05/16 02:43:09;0.00;0.00;0.62;0.00;0.00;0.62;2.03;1.70;;;27.60;21.80;;;;;;2259666;61;20360;-64
2023/05/16 02:45:53;0.00;0.00;0.62;0.00;0.00;0.62;1.80;1.53;;;27.60;22.40;;;;;;2260655;61;20365;-64
2023/05/16 02:48:38;0.00;0.00;0.62;0.00;0.00;0.62;2.70;1.63;;;27.60;22.40;;;;;;2260260;61;20420;-65
2023/05/16 02:51:26;0.00;0.00;0.62;0.00;0.00;0.62;1.77;1.43;;;27.50;21.80;;;;;;2259745;61;20412;-64
2023/05/16 02:54:11;0.00;0.00;0.62;0.00;0.00;0.62;2.80;1.57;;;27.50;21.80;;;;;;2259931;61;20373;-64
2023/05/16 02:56:56;0.00;0.00;0.62;0.00;0.00;0.62;2.97;1.80;;;27.50;21.80;;;;;;2260180;61;20419;-64
2023/05/16 02:59:41;0.00;0.00;0.62;0.00;0.00;0.62;1.83;1.23;;;27.50;21.80;;;;;;2259166;61;20353;-64
2023/05/16 03:02:26;0.00;0.00;0.62;0.00;0.00;0.62;1.70;1.40;;;27.50;21.90;;;;;;2260112;61;20361;-64
2023/05/16 03:05:11;0.00;0.00;0.62;0.00;0.00;0.62;1.70;1.33;;;27.50;21.80;;;;;;2259255;61;20392;-64
2023/05/16 03:07:57;0.00;0.00;0.62;0.00;0.00;0.62;1.73;1.37;;;27.50;21.80;;;;;;2260628;61;20369;-64
2023/05/16 03:10:41;0.00;0.00;0.62;0.00;0.00;0.62;2.20;1.50;;;27.50;21.80;;;;;;2260172;61;20401;-65
2023/05/16 03:13:27;0.00;0.00;0.62;0.00;0.00;0.62;1.67;1.20;;;27.50;22.40;;;;;;2259770;61;20940;-64
2023/05/16 03:16:12;0.00;0.00;0.62;0.00;0.00;0.62;1.80;0.97;;;27.50;21.80;;;;;;2260465;61;20430;-64
2023/05/16 03:18:56;0.00;0.00;0.62;0.00;0.00;0.62;2.10;1.57;;;27.50;21.80;;;;;;2260203;61;20400;-63
2023/05/16 03:21:41;0.00;0.00;0.62;0.00;0.00;0.62;2.73;1.30;;;27.50;21.80;;;;;;2259798;61;20417;-65
2023/05/16 03:24:27;0.00;0.00;0.62;0.00;0.00;0.62;1.90;1.40;;;27.50;21.90;;;;;;2260475;61;20869;-64
2023/05/16 03:27:12;0.00;0.00;0.62;0.00;0.00;0.62;1.93;1.23;;;27.50;21.90;;;;;;2260064;61;20400;-63
2023/05/16 03:29:56;0.00;0.00;0.62;0.00;0.00;0.62;1.80;1.20;;;27.50;21.80;;;;;;2260139;61;20368;-64
2023/05/16 03:32:43;0.00;0.00;0.62;0.00;0.00;0.62;2.03;1.40;;;27.50;21.90;;;;;;2260400;61;20773;-64
2023/05/16 03:35:29;0.00;0.00;0.62;0.00;0.00;0.62;2.07;1.50;;;27.50;21.90;;;;;;2259830;61;20431;-64
2023/05/16 03:38:14;0.00;0.00;0.62;0.00;0.00;0.62;2.13;1.20;;;27.40;21.80;;;;;;2260480;61;20411;-64
2023/05/16 03:41:03;0.00;0.00;0.62;0.00;0.00;0.62;2.10;1.20;;;27.40;21.80;;;;;;2259631;61;20381;-64
2023/05/16 03:43:48;0.00;0.00;0.62;0.00;0.00;0.62;1.80;1.20;;;27.40;21.80;;;;;;2259314;61;20773;-64
2023/05/16 03:46:33;0.00;0.00;0.62;0.00;0.00;0.62;4.00;1.37;;;27.40;21.80;;;;;;2260354;61;20412;-65
2023/05/16 03:49:20;0.00;0.00;0.62;0.00;0.00;0.62;1.80;1.30;;;27.40;21.80;;;;;;2259714;61;20361;-64
2023/05/16 03:52:05;0.00;0.00;0.62;0.00;0.00;0.62;2.10;1.30;;;27.40;21.80;;;;;;2260435;61;20416;-63
2023/05/16 03:54:50;0.00;0.00;0.62;0.00;0.00;0.62;2.07;1.33;;;27.40;21.80;;;;;;2260139;61;20376;-65
2023/05/16 03:57:37;0.00;0.00;0.62;0.00;0.00;0.62;1.90;1.30;;;27.40;21.80;;;;;;2259989;61;20377;-64
2023/05/16 04:00:22;0.00;0.00;0.62;0.00;0.00;0.62;1.80;1.20;;;27.40;21.80;;;;;;2262550;61;20380;-64
2023/05/16 04:03:07;0.00;0.00;0.62;0.00;0.00;0.62;1.60;1.20;;;27.40;21.80;;;;;;2260097;61;20423;-64
2023/05/16 04:05:52;0.00;0.00;0.62;0.00;0.00;0.62;3.00;1.30;;;27.40;21.80;;;;;;2259824;61;20353;-64
2023/05/16 04:08:39;0.00;0.00;0.62;0.00;0.00;0.62;3.00;1.43;;;27.40;21.90;;;;;;2260405;61;20403;-64
2023/05/16 04:11:25;0.00;0.00;0.62;0.00;0.00;0.62;2.00;1.37;;;27.30;21.80;;;;;;2259933;61;20431;-64
2023/05/16 04:14:11;0.00;0.00;0.62;0.00;0.00;0.62;2.13;1.50;;;27.30;21.80;;;;;;2260072;61;20461;-64
2023/05/16 04:16:56;0.00;0.00;0.62;0.00;0.00;0.62;2.20;1.10;;;27.30;21.80;;;;;;2259732;61;20393;-65
2023/05/16 04:19:40;0.00;0.00;0.62;0.00;0.00;0.62;1.93;1.00;;;27.30;21.80;;;;;;2259568;61;20435;-64
2023/05/16 04:22:25;0.00;0.00;0.62;0.00;0.00;0.62;2.43;1.23;;;27.30;21.80;;;;;;2260147;61;20368;-64
2023/05/16 04:25:11;0.00;0.00;0.62;0.00;0.00;0.62;1.80;1.30;;;27.30;21.80;;;;;;2260258;61;20400;-64
2023/05/16 04:27:56;0.00;0.00;0.62;0.00;0.00;0.62;2.00;1.13;;;27.30;21.90;;;;;;2259893;61;20761;-64
2023/05/16 04:30:42;0.00;0.00;0.62;0.00;0.00;0.62;2.20;1.33;;;27.30;21.90;;;;;;2259799;61;20404;-64
2023/05/16 04:33:26;0.00;0.00;0.62;0.00;0.00;0.62;2.57;1.33;;;27.30;21.90;;;;;;2260177;61;20361;-64
2023/05/16 04:36:11;0.00;0.00;0.62;0.00;0.00;0.62;2.53;1.30;;;27.30;21.80;;;;;;2259900;61;20439;-64
2023/05/16 04:38:56;0.00;0.00;0.62;0.00;0.00;0.62;2.10;1.20;;;27.30;21.90;;;;;;2259752;61;20376;-64
2023/05/16 04:41:41;0.00;0.00;0.62;0.00;0.00;0.62;2.23;1.30;;;27.30;21.90;;;;;;2259761;61;20423;-64
2023/05/16 04:44:26;0.00;0.00;0.62;0.00;0.00;0.62;2.00;1.20;;;27.30;21.90;;;;;;2259944;61;20828;-66
2023/05/16 04:47:12;0.00;0.00;0.62;0.00;0.00;0.62;3.07;1.87;;;27.20;21.80;;;;;;2260230;61;20369;-68
2023/05/16 04:49:57;0.00;0.00;0.62;0.00;0.00;0.62;2.17;1.30;;;27.20;21.80;;;;;;2258669;61;20425;-64
2023/05/16 04:52:41;0.00;0.00;0.62;0.00;0.00;0.62;2.33;1.23;;;27.20;21.80;;;;;;2260116;61;20364;-64
2023/05/16 04:55:26;0.00;0.00;0.62;0.00;0.00;0.62;2.10;1.43;;;27.20;21.80;;;;;;2260157;61;20840;-65
2023/05/16 04:58:11;0.00;0.00;0.62;0.00;0.00;0.62;2.80;1.50;;;27.20;21.80;;;;;;2262054;61;20411;-66
2023/05/16 05:00:56;0.00;0.00;0.62;0.00;0.00;0.62;3.07;2.07;;;27.20;21.80;;;;;;2259601;61;20712;-64
2023/05/16 05:03:43;0.00;0.00;0.62;0.00;0.00;0.62;3.00;2.13;;;27.20;21.80;;;;;;2259722;61;20369;-64
2023/05/16 05:06:28;0.00;0.00;0.62;0.00;0.00;0.62;3.03;1.90;;;27.20;21.80;;;;;;2259583;61;20609;-64
2023/05/16 05:09:12;0.00;0.00;0.62;0.00;0.00;0.62;2.50;1.80;;;27.20;21.80;;;;;;2260051;61;20408;-64
2023/05/16 05:11:57;0.00;0.00;0.62;0.00;0.00;0.62;2.47;1.87;;;27.20;22.30;;;;;;2259682;61;20986;-64
2023/05/16 05:14:41;0.00;0.00;0.62;0.00;0.00;0.62;5.13;2.50;;;27.20;21.80;;;;;;2260144;61;20478;-64
2023/05/16 05:17:26;0.00;0.00;0.62;0.00;0.00;0.62;3.73;2.20;;;27.20;21.80;;;;;;2260141;61;20448;-64
2023/05/16 05:20:12;0.00;0.00;0.62;0.00;0.00;0.62;4.17;2.70;;;27.20;21.80;;;;;;2259381;61;20412;-64
2023/05/16 05:22:57;0.00;0.00;0.62;0.00;0.00;0.62;4.57;2.60;;;27.20;21.80;;;;;;2260123;61;20369;-64
2023/05/16 05:25:42;0.00;0.00;0.62;0.00;0.00;0.62;4.37;2.90;;;27.20;21.80;;;;;;2259868;61;20721;-64
2023/05/16 05:28:27;0.00;0.00;0.62;0.00;0.00;0.62;4.90;3.10;;;27.20;21.80;;;;;;2260024;61;20972;-64
2023/05/16 05:31:11;0.00;0.00;0.62;0.00;0.00;0.62;3.97;3.23;;;27.20;21.80;;;;;;2259763;61;20917;-64
2023/05/16 05:33:56;0.00;0.00;0.62;0.00;0.00;0.62;5.93;3.50;;;27.20;21.80;;;;;;2259907;61;20360;-64
2023/05/16 05:36:42;0.00;0.00;0.62;0.00;0.00;0.62;4.50;2.90;;;27.10;21.70;;;;;;2261354;61;20963;-64
2023/05/16 05:39:27;0.00;0.00;0.62;0.00;0.00;0.62;4.03;2.83;;;27.20;21.70;;;;;;2261074;61;20383;-64
2023/05/16 05:42:12;0.00;0.00;0.62;0.00;0.00;0.62;3.40;2.70;;;27.10;21.70;;;;;;2260792;61;20443;-65
2023/05/16 05:44:57;0.00;0.00;0.62;0.00;0.00;0.62;5.17;2.83;;;27.10;21.70;;;;;;2261297;61;20648;-64
2023/05/16 05:47:43;0.00;0.00;0.62;0.00;0.00;0.62;3.40;2.50;;;27.10;21.70;;;;;;2261303;61;20360;-63
2023/05/16 05:50:27;0.00;0.00;0.62;0.00;0.00;0.62;4.37;2.60;;;27.10;21.70;;;;;;2260931;61;20411;-64
2023/05/16 05:53:13;0.00;0.00;0.62;0.00;0.00;0.62;6.33;3.00;;;27.20;21.70;;;;;;2261432;61;20365;-64
2023/05/16 05:55:58;0.00;0.00;0.62;0.00;0.00;0.62;3.87;2.07;;;27.10;21.70;;;;;;2260520;61;20815;-64
2023/05/16 05:58:43;0.00;0.00;0.62;0.00;0.00;0.62;3.13;2.23;;;27.10;21.70;;;;;;2261528;61;20380;-64
2023/05/16 06:01:28;0.00;0.00;0.62;0.00;0.00;0.62;4.90;2.30;;;27.10;21.70;;;;;;2261261;61;20482;-64
2023/05/16 06:04:13;0.00;0.00;0.62;0.00;0.00;0.62;3.03;1.90;;;27.10;21.70;;;;;;2260956;61;20904;-64
2023/05/16 06:06:58;0.00;0.00;0.62;0.00;0.00;0.62;3.37;2.10;;;27.10;21.60;;;;;;2261269;61;20411;-64
2023/05/16 06:09:44;0.00;0.00;0.62;0.00;0.00;0.62;3.70;2.33;;;27.10;21.60;;;;;;2261080;61;20854;-63
2023/05/16 06:12:29;0.00;0.00;0.62;0.00;0.00;0.62;4.33;2.37;;;27.10;21.60;;;;;;2261186;61;20867;-64
2023/05/16 06:15:15;0.00;0.00;0.62;0.00;0.00;0.62;3.47;2.00;;;27.10;21.60;;;;;;2261062;61;20581;-64
2023/05/16 06:18:00;0.00;0.00;0.62;0.00;0.00;0.62;2.87;2.00;;;27.10;21.60;;;;;;2260771;61;20772;-64
2023/05/16 06:20:44;0.00;0.00;0.62;0.00;0.00;0.62;3.70;1.80;;;27.10;21.60;;;;;;2260905;61;20400;-64
2023/05/16 06:23:30;0.00;0.00;0.62;0.00;0.00;0.62;4.23;1.90;;;27.10;21.60;;;;;;2261145;61;20388;-64
2023/05/16 06:26:16;0.00;0.00;0.62;0.00;0.00;0.62;4.23;2.33;;;27.10;21.60;;;;;;2260813;61;20389;-64
2023/05/16 06:29:01;0.00;0.00;0.62;0.00;0.00;0.62;2.40;1.77;;;27.10;21.60;;;;;;2260654;61;20399;-64
2023/05/16 06:31:46;0.00;0.00;0.62;0.00;0.00;0.62;4.10;2.00;;;27.00;21.50;;;;;;2273342;48;20416;-65
2023/05/16 06:34:31;0.00;0.00;0.62;0.00;0.00;0.62;3.50;1.97;;;27.10;21.60;;;;;;2256758;61;20370;-64
2023/05/16 06:37:16;0.00;0.00;0.62;0.00;0.00;0.62;3.43;2.10;;;27.10;21.60;;;;;;2257379;61;20389;-64
2023/05/16 06:40:01;0.00;0.00;0.62;0.00;0.00;0.62;3.03;1.60;;;27.00;21.50;;;;;;2256072;61;20365;-64
2023/05/16 06:42:47;0.00;0.00;0.62;0.00;0.00;0.62;3.33;1.90;;;27.10;21.60;;;;;;2257069;61;20777;-66
2023/05/16 06:45:31;0.00;0.00;0.62;0.00;0.00;0.62;3.60;2.03;;;27.10;21.60;;;;;;2256843;61;20836;-64
2023/05/16 06:48:18;0.00;0.00;0.62;0.00;0.00;0.62;3.40;1.90;;;27.10;21.60;;;;;;2255581;61;20417;-64
2023/05/16 06:51:03;0.00;0.00;0.62;0.00;0.00;0.62;3.87;2.00;;;27.00;21.50;;;;;;2256182;61;20929;-64
2023/05/16 06:53:48;0.00;0.00;0.62;0.00;0.00;0.62;3.63;1.90;;;27.00;21.50;;;;;;2256612;61;20769;-64
2023/05/16 06:56:33;0.00;0.00;0.62;0.00;0.00;0.62;2.67;1.80;;;27.00;21.50;;;;;;2256107;61;20782;-64
2023/05/16 06:59:19;0.00;0.00;0.62;0.00;0.00;0.62;3.43;1.67;;;27.00;21.50;;;;;;2256120;61;20394;-64
2023/05/16 07:02:05;0.00;0.00;0.62;0.00;0.00;0.62;3.30;1.97;;;27.00;21.50;;;;;;2255794;61;20847;-64
2023/05/16 07:04:50;0.00;0.00;0.62;0.00;0.00;0.62;4.63;2.13;;;27.00;21.50;;;;;;2256431;61;20365;-64
2023/05/16 07:07:35;0.00;0.00;0.62;0.00;0.00;0.62;3.20;1.80;;;27.00;21.50;;;;;;2256364;61;20362;-64
2023/05/16 07:10:20;0.00;0.00;0.62;0.00;0.00;0.62;3.27;1.73;;;27.00;21.50;;;;;;2255331;61;20907;-64
2023/05/16 07:13:06;0.00;0.00;0.62;0.00;0.00;0.62;2.70;1.60;;;27.00;21.50;;;;;;2256309;61;20830;-64
2023/05/16 07:15:52;0.00;0.00;0.62;0.00;0.00;0.62;2.63;1.50;;;27.00;21.50;;;;;;2256727;61;20794;-64
2023/05/16 07:18:37;0.00;0.00;0.62;0.00;0.00;0.62;3.23;1.70;;;27.00;21.40;;;;;;2255424;61;20420;-64
2023/05/16 07:21:22;0.00;0.00;0.62;0.00;0.00;0.62;3.10;1.50;;;27.00;21.40;;;;;;2255827;61;20436;-64
2023/05/16 07:24:07;0.00;0.00;0.62;0.00;0.00;0.62;3.70;1.93;;;27.00;21.40;;;;;;2256079;61;20377;-64
2023/05/16 07:26:52;0.00;0.00;0.62;0.00;0.00;0.62;3.50;1.80;;;27.00;21.40;;;;;;2256158;61;20358;-64
2023/05/16 07:29:38;0.00;0.00;0.62;0.00;0.00;0.62;3.63;1.60;;;27.00;21.40;;;;;;2256253;61;20358;-64
2023/05/16 07:32:24;0.00;0.00;0.62;0.00;0.00;0.62;3.47;1.80;;;27.00;21.40;;;;;;2256030;61;20370;-64
2023/05/16 07:35:09;0.00;0.00;0.62;0.00;0.00;0.62;3.40;2.03;;;27.00;21.40;;;;;;2256062;61;20405;-64
2023/05/16 07:37:54;0.00;0.00;0.62;0.00;0.00;0.62;2.80;1.40;;;27.00;21.40;;;;;;2256537;61;20428;-64
2023/05/16 07:40:39;0.00;0.00;0.62;0.00;0.00;0.62;2.47;1.60;;;27.00;21.40;;;;;;2255411;61;21030;-64
2023/05/16 07:43:24;0.00;0.00;0.62;0.00;0.00;0.62;5.77;2.47;;;27.00;21.40;;;;;;2256114;61;20922;-64
2023/05/16 07:46:09;0.00;0.00;0.62;0.00;0.00;0.62;2.90;1.70;;;27.00;21.40;;;;;;2256674;61;20362;-64
2023/05/16 07:48:56;0.00;0.00;0.62;0.00;0.00;0.62;3.57;1.70;;;27.00;21.40;;;;;;2256028;61;20369;-64
2023/05/16 07:51:40;0.00;0.00;0.62;0.00;0.00;0.62;3.80;1.90;;;27.00;21.30;;;;;;2268046;40;20466;-64
2023/05/16 07:54:25;0.00;0.00;0.62;0.00;0.00;0.62;3.20;2.07;;;27.00;21.30;;;;;;2259739;61;20387;-64
2023/05/16 07:57:10;0.00;0.00;0.62;0.00;0.00;0.62;2.37;1.50;;;27.00;21.30;;;;;;2260081;61;20397;-64
2023/05/16 07:59:55;0.00;0.00;0.62;0.00;0.00;0.62;3.97;1.67;;;27.00;21.30;;;;;;2259929;61;20369;-64
2023/05/16 08:02:39;0.00;0.00;0.62;0.00;0.00;0.62;4.57;2.03;;;27.00;21.30;;;;;;2255705;61;20412;-64
2023/05/16 08:05:25;0.00;0.00;0.62;0.00;0.00;0.62;3.40;1.83;;;27.00;21.30;;;;;;2256378;61;20450;-64
2023/05/16 08:08:10;0.00;0.00;0.62;0.00;0.00;0.62;2.57;1.80;;;27.00;21.20;;;;;;2256186;61;20933;-67
2023/05/16 08:10:54;0.00;0.00;0.62;0.00;0.00;0.62;1.90;1.40;;;27.00;21.20;;;;;;2256029;61;20902;-64
2023/05/16 08:13:39;0.00;0.00;0.62;0.00;0.00;0.62;3.10;1.73;;;27.00;21.20;;;;;;2256308;61;20417;-64
2023/05/16 08:16:24;0.00;0.00;0.62;0.00;0.00;0.62;3.40;1.97;;;27.00;21.20;;;;;;2255759;61;20981;-64
2023/05/16 08:19:09;0.00;0.00;0.62;0.00;0.00;0.62;3.23;1.70;;;27.00;21.20;;;;;;2256028;61;20361;-64
2023/05/16 08:21:55;0.00;0.00;0.62;0.00;0.00;0.62;3.67;2.20;;;27.00;21.20;;;;;;2256247;61;20389;-63
2023/05/16 08:24:40;0.00;0.00;0.62;0.00;0.00;0.62;2.90;1.70;;;27.00;21.20;;;;;;2255549;61;20366;-64
2023/05/16 08:27:25;0.00;0.00;0.62;0.00;0.00;0.62;2.90;1.80;;;27.00;21.10;;;;;;2256382;61;20424;-64
2023/05/16 08:30:11;0.00;0.00;0.62;0.00;0.00;0.62;4.93;1.83;;;27.00;21.10;;;;;;2256010;61;20365;-64
2023/05/16 08:32:56;0.00;0.00;0.62;0.00;0.00;0.62;2.07;1.33;;;27.00;21.10;;;;;;2256142;61;20417;-64
2023/05/16 08:35:42;0.00;0.00;0.62;0.00;0.00;0.62;2.73;1.70;;;27.00;21.10;;;;;;2255796;61;20369;-64
2023/05/16 08:38:28;0.00;0.00;0.62;0.00;0.00;0.62;2.37;1.40;;;27.00;21.10;;;;;;2257986;61;20358;-64
2023/05/16 08:41:13;0.00;0.00;0.62;0.00;0.00;0.62;2.90;2.40;;;27.00;21.10;;;;;;2255729;61;20421;-64
2023/05/16 08:43:57;0.00;0.00;0.62;0.00;0.00;0.62;2.83;1.70;;;27.00;21.10;;;;;;2256193;61;20450;-64
2023/05/16 08:46:44;0.00;0.00;0.62;0.00;0.00;0.62;4.27;2.17;;;27.00;21.10;;;;;;2255677;61;20358;-64
2023/05/16 08:49:30;0.00;0.00;0.62;0.00;0.00;0.62;3.00;1.57;;;27.00;21.10;;;;;;2255858;61;20810;-64
2023/05/16 08:52:19;0.00;0.00;0.62;0.00;0.00;0.62;3.00;1.40;;;27.00;21.10;;;;;;2256307;61;20832;-64
2023/05/16 08:55:08;0.00;0.00;0.62;0.00;0.00;0.62;4.30;2.20;;;26.90;21.00;;;;;;2255728;61;20369;-64
2023/05/16 08:57:53;0.00;0.00;0.62;0.00;0.00;0.62;3.67;2.00;;;27.00;21.10;;;;;;2256189;61;20366;-64
2023/05/16 09:00:39;0.00;0.00;0.62;0.00;0.00;0.62;2.73;1.90;;;27.00;21.10;;;;;;2255456;61;20382;-64
2023/05/16 09:03:24;0.00;0.00;0.62;0.00;0.00;0.62;3.37;1.50;;;26.90;21.00;;;;;;2255915;61;20365;-64
2023/05/16 09:06:09;0.00;0.00;0.62;0.00;0.00;0.62;2.83;1.90;;;26.90;21.00;;;;;;2256208;61;20373;-64
2023/05/16 09:08:54;0.00;0.00;0.62;0.00;0.00;0.62;3.50;2.40;;;26.90;21.10;;;;;;2255138;61;20429;-65
2023/05/16 09:11:41;0.00;0.00;0.62;0.00;0.00;0.62;3.00;1.70;;;26.90;21.00;;;;;;2256314;61;20385;-64
2023/05/16 09:14:26;0.00;0.00;0.62;0.00;0.00;0.62;2.80;1.90;;;26.90;21.10;;;;;;2256218;61;20405;-63
2023/05/16 09:17:11;0.00;0.00;0.62;0.00;0.00;0.62;3.13;1.90;;;26.90;21.10;;;;;;2255500;61;20425;-63
2023/05/16 09:19:57;0.00;0.00;0.62;0.00;0.00;0.62;2.27;1.50;;;26.90;21.10;;;;;;2258306;61;20444;-63
2023/05/16 09:22:51;0.00;0.00;0.62;0.00;0.00;0.62;3.77;1.70;;;26.90;21.10;;;;;;2255730;61;20401;-63
2023/05/16 09:25:36;0.00;0.00;0.62;0.00;0.00;0.62;3.43;2.23;;;26.90;21.10;;;;;;2256308;61;21029;-63
2023/05/16 09:28:22;0.00;0.00;0.62;0.00;0.00;0.62;3.00;2.00;;;26.90;21.10;;;;;;2256385;61;20403;-63
2023/05/16 09:31:20;0.00;0.00;0.62;0.00;0.00;0.62;2.93;2.03;;;26.90;21.10;;;;;;2255189;61;20385;-63
2023/05/16 09:34:08;0.00;0.00;0.62;0.00;0.00;0.62;2.60;2.00;;;26.90;21.10;;;;;;2256326;61;20412;-63
2023/05/16 09:36:54;0.00;0.00;0.62;0.00;0.00;0.62;3.37;1.80;;;26.90;21.00;;;;;;2255963;61;20381;-63
2023/05/16 09:39:46;0.00;0.00;0.62;0.00;0.00;0.62;2.37;1.60;;;26.90;21.10;;;;;;2255773;61;20444;-63
2023/05/16 09:42:31;0.00;0.00;0.62;0.00;0.00;0.62;2.80;2.13;;;26.90;21.00;;;;;;2256205;61;20394;-63
2023/05/16 09:45:18;0.00;0.00;0.62;0.00;0.00;0.62;2.73;2.00;;;26.90;21.10;;;;;;2257657;61;20807;-63
2023/05/16 09:48:06;0.00;0.00;0.62;0.00;0.00;0.62;2.53;1.67;;;26.90;21.00;;;;;;2256266;61;20408;-63
2023/05/16 09:50:53;0.00;0.00;0.62;0.00;0.00;0.62;3.17;2.20;;;26.90;21.00;;;;;;2255702;61;20497;-66
2023/05/16 09:53:38;0.00;0.00;0.62;0.00;0.00;0.62;2.10;1.53;;;26.90;21.10;;;;;;2255009;61;20556;-66
2023/05/16 09:56:23;0.00;0.00;0.62;0.00;0.00;0.62;6.27;2.17;;;26.90;21.00;;;;;;2255653;61;20436;-66
2023/05/16 09:59:10;0.00;0.00;0.62;0.00;0.00;0.62;3.10;2.10;;;26.90;21.00;;;;;;2255433;61;20385;-65
2023/05/16 10:01:59;0.00;0.00;0.62;0.00;0.00;0.62;2.67;1.93;;;26.90;21.00;;;;;;2304754;40;20501;-65
2023/05/16 10:04:45;0.00;0.00;0.62;0.00;0.00;0.62;3.50;2.60;;;26.90;21.00;;;;;;2255969;61;20405;-66
2023/05/16 10:07:32;0.00;0.00;0.62;0.00;0.00;0.62;3.60;2.17;;;26.90;21.00;;;;;;2255520;61;20390;-66
2023/05/16 10:10:17;0.00;0.00;0.62;0.00;0.00;0.62;2.77;2.03;;;26.90;21.10;;;;;;2255714;61;20381;-63
2023/05/16 10:13:04;0.00;0.00;0.62;0.00;0.00;0.62;4.03;2.50;;;26.90;21.00;;;;;;2255885;61;20370;-65
2023/05/16 10:15:50;0.00;0.00;0.62;0.00;0.00;0.62;3.10;1.90;;;26.90;21.10;;;;;;2255349;61;20378;-64
2023/05/16 10:18:37;0.00;0.00;0.62;0.00;0.00;0.62;2.63;1.83;;;26.90;21.10;;;;;;2255898;61;20388;-67
2023/05/16 10:21:24;0.00;0.00;0.62;0.00;0.00;0.62;4.40;2.03;;;26.90;21.00;;;;;;2256313;61;20984;-65
2023/05/16 10:24:12;0.00;0.00;0.62;0.00;0.00;0.62;3.40;2.20;;;26.90;21.00;;;;;;2256361;61;20913;-66
2023/05/16 10:26:57;0.00;0.00;0.62;0.00;0.00;0.62;2.30;2.00;;;26.90;21.00;;;;;;2255803;61;20362;-68
2023/05/16 10:29:43;0.00;0.00;0.62;0.00;0.00;0.62;3.60;2.53;;;26.90;21.60;;;;;;2255709;61;20357;-65
2023/05/16 10:32:28;0.00;0.00;0.62;0.00;0.00;0.62;3.00;2.20;;;26.90;21.00;;;;;;2256625;61;20794;-65
2023/05/16 10:35:15;0.00;0.00;0.62;0.00;0.00;0.62;3.17;2.27;;;26.90;21.00;;;;;;2256398;61;20404;-66
2023/05/16 10:38:01;0.00;0.00;0.62;0.00;0.00;0.62;3.30;2.10;;;26.90;21.00;;;;;;2256173;61;20373;-65
2023/05/16 10:40:47;0.00;0.00;0.62;0.00;0.00;0.62;4.97;2.07;;;26.90;21.10;;;;;;2256100;61;20392;-65
2023/05/16 10:43:32;0.00;0.00;0.62;0.00;0.00;0.62;3.20;2.33;;;26.90;21.10;;;;;;2256324;61;20828;-65
2023/05/16 10:46:17;0.00;0.00;0.62;0.00;0.00;0.62;2.50;1.90;;;26.90;21.00;;;;;;2256670;61;20922;-68
2023/05/16 10:49:20;0.00;0.00;0.62;0.00;0.00;0.62;2.37;1.70;;;26.90;21.30;;;;;;2256116;61;20401;-65
2023/05/16 10:52:08;0.00;0.00;0.62;0.00;0.00;0.62;2.77;2.10;;;26.90;21.00;;;;;;2255741;61;20914;-66
2023/05/16 10:54:54;0.00;0.00;0.62;0.00;0.00;0.62;2.47;1.67;;;26.90;21.60;;;;;;2256541;61;20525;-63